Time;durP1;ratioP1;P1;durP2;ratioP2;P2;SDS_P1;SDS_P2;PMS_P1;PMS_P2;Temp;Humidity;BMP_temperature;BMP_pressure;BME280_temperature;BME280_humidity;BME280_pressure;Samples;Min_cycle;Max_cycle;Signal;HPM_P1;HPM_P2
2023/11/02 00:02:38;;;;;;;9.32;5.65;;;;;;;19.89;100.00;101152.72;21220189;27;20096;-79
2023/11/02 00:13:02;;;;;;;13.38;5.50;;;;;;;19.89;100.00;101156.28;21220659;27;20053;-78
2023/11/02 00:23:39;;;;;;;11.43;4.60;;;;;;;19.89;100.00;101148.25;21224113;27;20051;-78
2023/11/02 00:34:01;;;;;;;12.63;5.13;;;;;;;19.74;100.00;101137.81;21210609;27;20483;-78
2023/11/02 00:44:27;;;;;;;11.77;4.72;;;;;;;19.82;100.00;101141.22;21231521;27;20047;-79
2023/11/02 00:54:57;;;;;;;12.38;4.85;;;;;;;19.79;100.00;101125.22;21159520;28;20611;-79
2023/11/02 01:05:28;;;;;;;13.07;5.22;;;;;;;19.51;100.00;101110.47;21173771;28;20048;-79
2023/11/02 01:16:07;;;;;;;8.73;4.78;;;;;;;19.66;100.00;101115.59;21158122;28;20055;-78
2023/11/02 01:27:01;;;;;;;11.80;5.03;;;;;;;19.28;100.00;101105.44;21181838;27;20047;-78
2023/11/02 01:37:30;;;;;;;13.68;4.80;;;;;;;19.44;100.00;101101.63;21188976;27;20386;-78
2023/11/02 01:48:19;;;;;;;11.50;4.82;;;;;;;19.31;100.00;101092.00;21205367;27;20066;-79
2023/11/02 01:58:57;;;;;;;16.03;4.90;;;;;;;19.46;100.00;101086.47;21169789;27;20039;-78
2023/11/02 02:09:38;;;;;;;18.50;5.37;;;;;;;19.39;100.00;101082.06;21176077;27;20051;-78
2023/11/02 02:20:09;;;;;;;9.75;4.60;;;;;;;19.12;100.00;101077.13;21131344;27;20051;-77
2023/11/02 02:30:54;;;;;;;14.88;4.90;;;;;;;19.09;100.00;101090.56;21161061;27;20035;-77
2023/11/02 02:41:23;;;;;;;13.02;5.00;;;;;;;19.11;100.00;101081.59;21160135;27;20054;-78
2023/11/02 02:51:48;;;;;;;13.88;5.10;;;;;;;19.12;100.00;101071.75;21184890;27;20134;-79
2023/11/02 03:02:14;;;;;;;16.48;5.22;;;;;;;19.20;100.00;101051.13;21195262;27;20365;-78
2023/11/02 03:12:39;;;;;;;14.90;4.80;;;;;;;19.21;100.00;101057.38;21137803;27;20052;-77
2023/11/02 03:23:13;;;;;;;14.98;4.65;;;;;;;19.36;100.00;101055.31;21168139;27;20055;-77
2023/11/02 03:33:42;;;;;;;12.00;4.70;;;;;;;19.37;100.00;101048.19;21195402;27;20051;-78
2023/11/02 03:44:18;;;;;;;13.15;4.63;;;;;;;19.20;100.00;101042.22;21155114;27;20543;-78
2023/11/02 03:54:55;;;;;;;16.60;5.03;;;;;;;18.87;100.00;101047.16;21221946;27;20043;-78
2023/11/02 04:05:22;;;;;;;13.27;4.32;;;;;;;18.81;100.00;101033.88;21239552;27;20043;-78
2023/11/02 04:15:45;;;;;;;12.25;5.25;;;;;;;18.89;100.00;101026.63;21207535;27;20051;-79
2023/11/02 04:26:09;;;;;;;16.90;5.28;;;;;;;18.77;100.00;101032.16;21218454;27;20055;-78
2023/11/02 04:36:31;;;;;;;13.18;4.63;;;;;;;18.66;100.00;101047.44;21221846;27;20438;-79
2023/11/02 04:46:55;;;;;;;15.05;4.38;;;;;;;18.93;100.00;101063.13;21205378;27;20048;-79
2023/11/02 04:57:18;;;;;;;15.60;4.20;;;;;;;19.25;100.00;101040.34;21172380;27;20138;-78
2023/11/02 05:07:42;;;;;;;10.23;3.63;;;;;;;19.52;100.00;101031.00;21177269;27;20051;-80
2023/11/02 05:18:06;;;;;;;11.80;3.58;;;;;;;19.87;100.00;101042.91;21193350;27;20047;-79
2023/11/02 05:28:31;;;;;;;7.85;3.15;;;;;;;20.47;100.00;101039.09;21209890;27;20043;-79
2023/11/02 05:38:53;;;;;;;11.95;2.78;;;;;;;21.23;100.00;101035.63;21195639;27;20040;-80
2023/11/02 05:49:17;;;;;;;11.43;2.60;;;;;;;22.02;100.00;101049.75;21193716;27;20051;-78
2023/11/02 05:59:40;;;;;;;14.73;3.05;;;;;;;22.56;100.00;101059.91;21231210;27;20087;-79
2023/11/02 06:10:06;;;;;;;13.18;2.83;;;;;;;22.82;100.00;101053.78;21229241;27;20055;-79
2023/11/02 06:20:28;;;;;;;16.02;3.40;;;;;;;23.05;100.00;101053.97;21240477;27;20386;-79
2023/11/02 06:30:52;;;;;;;12.40;3.17;;;;;;;23.04;100.00;101077.31;21281331;27;20095;-81
2023/11/02 06:41:15;;;;;;;13.45;3.30;;;;;;;23.30;100.00;101056.78;21276451;27;20043;-80
2023/11/02 06:51:39;;;;;;;13.52;3.00;;;;;;;23.74;100.00;101061.63;21241298;27;20502;-81
2023/11/02 07:02:03;;;;;;;8.77;2.95;;;;;;;24.08;100.00;101049.66;21206548;27;20047;-79
2023/11/02 07:12:27;;;;;;;12.02;3.10;;;;;;;24.54;100.00;101038.97;21145726;27;20696;-80
2023/11/02 07:22:49;;;;;;;12.40;2.35;;;;;;;25.41;100.00;101019.31;21174436;27;20566;-79
2023/11/02 07:33:14;;;;;;;20.35;3.50;;;;;;;25.48;100.00;100987.50;21199782;27;20390;-79
2023/11/02 07:43:36;;;;;;;12.95;3.17;;;;;;;24.86;100.00;101004.44;21245712;27;20099;-79
2023/11/02 07:54:01;;;;;;;16.10;3.88;;;;;;;24.78;100.00;101033.56;21227603;27;20050;-79
2023/11/02 08:04:23;;;;;;;19.10;3.80;;;;;;;25.05;100.00;101043.34;21209660;27;20051;-80
2023/11/02 08:14:47;;;;;;;14.75;3.63;;;;;;;25.69;100.00;101049.72;21212069;27;20055;-80
2023/11/02 08:25:10;;;;;;;10.93;2.55;;;;;;;25.96;100.00;101058.47;21220290;27;20069;-79
2023/11/02 08:35:34;;;;;;;14.15;3.08;;;;;;;26.45;100.00;101056.34;21222963;27;20092;-79
2023/11/02 08:45:56;;;;;;;9.68;2.30;;;;;;;26.67;100.00;101032.72;21205377;27;20088;-79
2023/11/02 08:56:21;;;;;;;9.77;2.30;;;;;;;26.63;100.00;101044.66;21225201;27;20046;-77
2023/11/02 09:06:44;;;;;;;10.00;2.53;;;;;;;26.89;100.00;101049.78;21197535;27;20066;-77
2023/11/02 09:17:08;;;;;;;12.88;2.60;;;;;;;27.24;100.00;101025.53;21188751;27;20045;-75
2023/11/02 09:27:31;;;;;;;8.93;2.30;;;;;;;27.47;100.00;101014.38;21211033;27;20050;-75
2023/11/02 09:37:55;;;;;;;13.13;2.30;;;;;;;27.28;100.00;101008.13;21213997;28;20047;-75
2023/11/02 09:48:17;;;;;;;11.45;2.45;;;;;;;27.36;92.26;100976.97;21213455;27;20107;-75
2023/11/02 09:58:42;;;;;;;7.13;1.88;;;;;;;27.35;93.16;100983.34;21214151;27;20047;-75
2023/11/02 10:09:05;;;;;;;11.80;2.30;;;;;;;27.67;100.00;100965.44;21213008;27;20055;-75
2023/11/02 10:19:30;;;;;;;11.13;2.38;;;;;;;27.88;100.00;100970.72;21213071;27;20051;-74
2023/11/02 10:29:53;;;;;;;15.13;2.25;;;;;;;27.67;100.00;100970.88;21208752;27;20058;-75
2023/11/02 10:40:19;;;;;;;14.95;2.95;;;;;;;27.54;100.00;100958.91;21200707;27;20500;-74
2023/11/02 10:50:43;;;;;;;9.98;2.17;;;;;;;27.49;100.00;100987.19;21212331;27;20138;-75
2023/11/02 11:01:09;;;;;;;13.80;2.35;;;;;;;28.02;100.00;101022.44;21196386;27;20043;-76
2023/11/02 11:11:34;;;;;;;10.77;2.10;;;;;;;28.09;97.83;101013.88;21221696;27;20078;-75
2023/11/02 11:22:00;;;;;;;23.20;3.22;;;;;;;27.42;90.19;100980.31;21204478;27;20095;-76
2023/11/02 11:32:34;;;;;;;9.87;2.00;;;;;;;27.41;85.11;100973.13;21189433;27;20044;-79
2023/11/02 11:43:04;;;;;;;10.50;2.60;;;;;;;27.21;84.73;100971.44;21237848;27;20084;-78
2023/11/02 11:53:28;;;;;;;14.18;2.35;;;;;;;27.05;79.54;100973.13;21206765;27;20111;-79
2023/11/02 12:03:51;;;;;;;13.77;2.67;;;;;;;26.93;87.37;100963.78;21237052;27;20035;-78
2023/11/02 12:14:18;;;;;;;10.30;2.70;;;;;;;26.98;98.08;100966.28;21245579;27;20422;-78
2023/11/02 12:24:56;;;;;;;9.10;2.45;;;;;;;26.89;100.00;100973.91;21215943;27;20045;-77
2023/11/02 12:35:20;;;;;;;12.02;2.83;;;;;;;26.73;100.00;100951.16;21194510;27;20406;-78
2023/11/02 12:45:45;;;;;;;12.95;2.78;;;;;;;26.60;98.27;100955.41;21220899;27;20051;-77
2023/11/02 12:56:08;;;;;;;12.65;3.60;;;;;;;26.41;100.00;100939.16;21249694;27;20515;-78
2023/11/02 13:06:35;;;;;;;10.15;2.33;;;;;;;26.42;100.00;100926.50;21221024;27;20051;-77
2023/11/02 13:16:58;;;;;;;10.73;2.40;;;;;;;26.43;100.00;100885.81;21247690;27;20138;-77
2023/11/02 13:27:22;;;;;;;11.90;2.10;;;;;;;26.42;100.00;100861.50;21225511;27;20039;-77
2023/11/02 13:37:46;;;;;;;10.63;2.83;;;;;;;26.39;100.00;100858.94;21228176;27;20378;-76
2023/11/02 13:48:09;;;;;;;13.27;2.85;;;;;;;26.46;100.00;100849.56;21241596;27;20047;-78
2023/11/02 13:58:32;;;;;;;15.95;3.08;;;;;;;26.18;100.00;100812.97;21222086;27;20039;-77
2023/11/02 14:08:57;;;;;;;17.35;3.10;;;;;;;25.83;100.00;100802.06;21229342;27;20058;-78
2023/11/02 14:19:19;;;;;;;13.18;2.78;;;;;;;25.55;100.00;100811.41;21228573;27;20490;-78
2023/11/02 14:29:43;;;;;;;14.63;3.03;;;;;;;25.35;100.00;100817.72;21232282;27;20046;-78
2023/11/02 14:40:08;;;;;;;16.27;3.53;;;;;;;25.17;100.00;100825.75;21222354;27;20111;-78
2023/11/02 14:50:34;;;;;;;13.57;2.67;;;;;;;24.98;100.00;100828.38;21221351;27;20058;-80
2023/11/02 15:00:56;;;;;;;13.43;3.00;;;;;;;24.79;100.00;100841.75;21186887;27;20054;-79
2023/11/02 15:11:24;;;;;;;15.18;2.88;;;;;;;24.62;100.00;100855.06;21210414;27;20108;-81
2023/11/02 15:21:46;;;;;;;17.27;4.03;;;;;;;24.46;100.00;100845.84;21224439;27;20066;-79
2023/11/02 15:32:10;;;;;;;13.00;2.75;;;;;;;24.31;100.00;100852.72;21204644;27;20047;-80
2023/11/02 15:42:33;;;;;;;15.40;3.90;;;;;;;24.07;100.00;100854.53;21223113;27;20043;-79
2023/11/02 15:52:58;;;;;;;14.15;2.80;;;;;;;23.82;100.00;100856.41;21199238;27;20590;-79
2023/11/02 16:03:20;;;;;;;13.65;3.45;;;;;;;23.71;100.00;100883.75;21230641;27;20043;-79
2023/11/02 16:13:47;;;;;;;11.20;3.05;;;;;;;23.51;100.00;100883.59;21205471;27;20051;-80
2023/11/02 16:24:11;;;;;;;14.70;3.30;;;;;;;23.34;100.00;100891.38;21215199;27;20043;-79
2023/11/02 16:34:35;;;;;;;17.67;4.13;;;;;;;23.35;100.00;100885.06;21242178;27;20133;-81
2023/11/02 16:44:57;;;;;;;15.02;4.05;;;;;;;23.36;100.00;100886.81;21231518;27;20514;-78
2023/11/02 16:55:22;;;;;;;23.42;4.45;;;;;;;23.33;100.00;100890.50;21200127;27;20043;-77
2023/11/02 17:05:45;;;;;;;15.07;3.90;;;;;;;23.26;100.00;100893.44;21237716;27;20051;-77
2023/11/02 17:16:11;;;;;;;13.65;3.75;;;;;;;23.28;100.00;100872.72;21254367;27;20058;-81
2023/11/02 17:26:34;;;;;;;15.73;3.85;;;;;;;23.29;100.00;100879.88;21261602;27;20042;-83
2023/11/02 17:36:58;;;;;;;17.48;3.72;;;;;;;23.20;100.00;100889.16;21208053;27;21371;-80
2023/11/02 17:47:20;;;;;;;13.77;3.33;;;;;;;23.12;100.00;100893.91;21205074;27;20065;-84
2023/11/02 17:57:44;;;;;;;19.17;4.22;;;;;;;23.11;100.00;100902.03;21220897;27;20051;-81
2023/11/02 18:08:07;;;;;;;19.52;4.32;;;;;;;23.09;100.00;100917.38;21228291;27;20138;-81
2023/11/02 18:18:31;;;;;;;19.80;4.10;;;;;;;23.07;100.00;100921.94;21239431;27;20043;-82
2023/11/02 18:28:54;;;;;;;17.33;3.55;;;;;;;23.03;100.00;100919.38;21223792;27;20050;-85
2023/11/02 18:39:18;;;;;;;15.32;4.28;;;;;;;22.98;100.00;100917.72;21188513;27;20051;-82
2023/11/02 18:49:41;;;;;;;15.90;3.88;;;;;;;22.89;100.00;100931.50;21214962;27;20051;-81
2023/11/02 19:00:08;;;;;;;13.43;3.65;;;;;;;22.86;100.00;100937.88;21215622;27;20096;-81
2023/11/02 19:10:30;;;;;;;17.25;4.13;;;;;;;22.83;100.00;100945.19;21213337;27;20044;-83
2023/11/02 19:20:57;;;;;;;13.15;3.53;;;;;;;22.79;100.00;100936.28;21199838;27;20055;-82
2023/11/02 19:31:20;;;;;;;24.45;5.03;;;;;;;22.73;100.00;100930.22;21206819;27;20085;-83
2023/11/02 19:41:44;;;;;;;17.92;4.97;;;;;;;22.60;100.00;100924.31;21218852;27;20132;-85
2023/11/02 19:52:07;;;;;;;19.35;4.97;;;;;;;22.49;100.00;100927.34;21229928;27;20083;-82
2023/11/02 20:02:31;;;;;;;22.90;4.88;;;;;;;22.43;100.00;100942.81;21215162;27;20111;-83
2023/11/02 20:12:53;;;;;;;15.82;4.40;;;;;;;22.39;100.00;100928.53;21227787;27;20051;-80
2023/11/02 20:23:17;;;;;;;17.83;4.43;;;;;;;22.34;100.00;100937.69;21242023;27;20478;-83
2023/11/02 20:33:41;;;;;;;15.90;4.35;;;;;;;22.26;100.00;100909.19;21205249;27;20134;-83
2023/11/02 20:44:06;;;;;;;18.65;4.93;;;;;;;22.22;100.00;100906.66;21218422;27;20047;-83
2023/11/02 20:54:30;;;;;;;18.88;4.35;;;;;;;22.14;100.00;100916.75;21220540;27;20623;-83
2023/11/02 21:04:54;;;;;;;15.82;4.57;;;;;;;22.16;100.00;100926.56;21226102;27;20039;-83
2023/11/02 21:15:17;;;;;;;17.05;4.05;;;;;;;22.21;100.00;100942.56;21200271;28;20055;-81
2023/11/02 21:25:41;;;;;;;16.50;4.20;;;;;;;22.11;100.00;100938.38;21166379;28;20168;-80
2023/11/02 21:36:05;;;;;;;17.70;4.00;;;;;;;22.02;100.00;100918.00;21227086;27;20051;-83
2023/11/02 21:46:33;;;;;;;15.75;4.40;;;;;;;22.00;100.00;100925.22;21252787;27;20058;-82
2023/11/02 21:56:55;;;;;;;14.15;4.15;;;;;;;21.96;100.00;100917.31;21130186;28;20052;-79
2023/11/02 22:07:19;;;;;;;16.38;4.03;;;;;;;21.85;100.00;100914.91;21206960;27;20062;-81
2023/11/02 22:17:42;;;;;;;19.88;5.22;;;;;;;21.79;100.00;100907.84;21148797;28;20074;-82
2023/11/02 22:28:07;;;;;;;17.63;4.55;;;;;;;21.74;100.00;100922.34;21197726;27;20042;-81
2023/11/02 22:38:29;;;;;;;14.95;3.88;;;;;;;21.64;100.00;100934.31;21241987;27;20051;-82
2023/11/02 22:48:53;;;;;;;21.65;4.93;;;;;;;21.55;100.00;100926.47;21206553;27;20135;-78
2023/11/02 22:59:16;;;;;;;17.33;4.70;;;;;;;20.97;100.00;100918.09;21214078;27;20066;-80
2023/11/02 23:09:40;;;;;;;14.10;3.78;;;;;;;20.90;100.00;100903.06;21227213;27;20073;-79
2023/11/02 23:20:04;;;;;;;16.60;4.15;;;;;;;20.88;100.00;100904.00;21228047;27;20047;-80
2023/11/02 23:30:28;;;;;;;11.73;3.70;;;;;;;20.89;100.00;100900.41;21225812;27;20108;-80
2023/11/02 23:40:51;;;;;;;16.05;3.85;;;;;;;20.38;100.00;100908.75;21251233;27;20556;-81
2023/11/02 23:51:15;;;;;;;13.18;4.32;;;;;;;20.08;100.00;100894.19;21269036;27;20467;-82
